Colorado Springs, CO (80920)

8:39 AM MST on March 01, 2015 (GMT -0700)
Charleston Place, Briargate, CO | Change Station
CLOSE
Current Station
Personal Weather Station
Location: Colorado Springs, CO
Elevation: 6870 ft
Nearby Weather Stations

Elev 6870 ft 38.95 °N, 104.76 °W | Updated 12 seconds ago

Clear
Clear
28.2 °F
Feels Like 24 °F
N
3.8
Wind Variable Wind from WNW
Gusts 3.8 mph

Today
High -- | Low -- °F
--% Chance of Precip.
Yesterday
High -- | Low -- °F
Precip. -- in
6:31 AM 5:51 PM
Waxing Gibbous, 85% visible
Pressure 30.32 in
Visibility 8.0 miles
Clouds Clear
Windchill 24 °F
Dew Point 14 °F
Humidity 55%
Rainfall 0.00 in
Snow Depth Not available.
UV 1 out of 12
Pollen .70 out of 12
Air Quality Not available.
Flu Activity Not available.
METAR KAFF 011458Z AUTO 36008KT 350V080 8SM CLR M11/M13 A3008 RMK AO2 SLP266 T11091133 52021

More Conditions Fewer Conditions

Pressure 30.32 in
Visibility 8.0 miles
Clouds Clear
Windchill 24 °F
Dew Point 14 °F
Humidity 55%
Rainfall 0.00 in
Snow Depth Not available.
UV 1 out of 12
Pollen .70 out of 12
Air Quality Not available.
Flu Activity Not available.
METAR KAFF 011458Z AUTO 36008KT 350V080 8SM CLR M11/M13 A3008 RMK AO2 SLP266 T11091133 52021

More Conditions Fewer Conditions

10-Day Weather Forecast

Almanac

Astronomy

Mar. 01, 2015 Rise Set
Actual Time
Civil Twilight
Nautical Twilight
Astronomical Twilight
Moon
Length of Visible Light
Length of Day
Tomorrow will be .
, % of the Moon is Illuminated

Today's Extremes

State Highs State Lows

Community

WunderPhotos

Upload Photos

1,801,423 photos uploaded!

WunderBlogs® & News

Nearby

Air Quality

  Air Quality AQ Index Pollutant
Not available.

Snow Depth

Station Depth Elevation

Earthquake Activity

City Distance Mag. Time & Date
Minimum magnitude displayed is 2.5.

Coastal Water Temperatures

Place Temperature

Nearby Weather Stations